My Meet Scores
Victoria Vogwill, Oak Lawn Pirouette's Gymnastics - MyMeetScores.com
Top100 | Top Teams | Upcoming Meets | Completed Meets | Latest | Add Scores | Help| Support | Bookmark and Share

Victoria Vogwill, Oak Lawn Pirouette's Gymnastics
Personal Bests
LevelVault BarsBeamFloorAA
48.5758.900 8.7008.60034.250
58.6508.800 8.8508.90034.275
68.7508.625 8.9259.12535.175
78.6507.950 8.3508.42533.250
Meet Scores
Date Meet Team Session Level Division Vault Bars Beam Floor AA
2021-02-26 Kinetic Classic 2021 Oak Lawn Pirouette's Gymnastics 13 7 Older 8.650 23 7.950 22 8.350 22T 8.300 24 33.250 24
2021-02-19 BIG Classic 2021 Oak Lawn Pirouette's Gymnastics 8A 7 Junior D 8.550 11 7.550 14 7.850 12 8.425 13 32.375 12
2020-02-14 Midwest Open Oak Lawn Pirouette's Gymnastics 07B 6 Senior A 8.200 17 8.625 12T 8.375 17 9.125 10T 34.325 15
2020-01-24 Uga Invitational Oak Lawn Pirouette's Gymnastics 6A 6 Sr B 8.600 11T 8.600 6T 8.925 10 9.050 11 35.175 9
2020-01-10 St Jude Benefit Meet Oak Lawn Pirouette's Gymnastics 2B 6 Sr B 8.550 13T 7.950 17 8.800 11 8.850 15 34.150 18
2019-12-20 2019 Women's Hawaiian Pineapple Classic Oak Lawn Pirouette's Gymnastics 3A 6 Ages 14+ 8.750 8T 8.200 6 7.950 9 9.050 8T 33.950 8
2019-11-08 Illinois Judges Cup Oak Lawn Pirouette's Gymnastics P1 6 All Ages 8.300 48T 8.125 36 7.650 50 9.075 30T 33.150 46
2019-03-22 Illinois Gymnastics State Championships Oak Lawn Pirouette's Gymnastics 3 5 SR D 8.250 27 8.325 18 8.100 24 8.900 20T 33.575 25
2019-02-23 Kinetic Classic 2019 Oak Lawn Pirouette's Gymnastics 1 5 Older 7.650 20 8.100 19 6.550 20 8.250 14T 30.550 20
2019-02-01 The Big Chill Oak Lawn Pirouette's Gymnastics 1 5 11 & up 0.000 9T 8.050 6 7.600 11 8.525 7T 32.125 10
2019-01-25 UGA Invitational Oak Lawn Pirouette's Gymnastics A09 5 Sr B 8.450 12 8.800 3 8.850 6 7.800 12 33.900 8
2019-01-11 St Jude Benefit Meet Oak Lawn Pirouette's Gymnastics 8A 5 Sr B 8.650 13 8.700 6 8.500 8T 8.425 15 34.275 9T
2018-12-14 Hawaiian Pineapple Classic Oak Lawn Pirouette's Gymnastics 4B 5 Ages12+ 8.425 12 8.150 11 8.525 10 8.425 12 33.525 10
2018-03-08 Level 4 & 5 State Oak Lawn Pirouette's Gymnastics All 4 Sr F 8.400 24 8.900 9 8.650 19 8.300 26 34.250 23
2018-02-17 Women's Midwest Open Oak Lawn Pirouette's Gymnastics 14 4 Sr B 8.125 16 8.600 11 8.350 10T 8.425 11 33.500 13
2018-02-01 The Big Chill Oak Lawn Pirouette's Gymnastics 4 4 11 12 yr 7.600 7 8.600 3 8.450 3 8.600 4 33.250 4
2018-01-26 2018 UGA Classic Oak Lawn Pirouette's Gymnastics AA1 4 Sr B 8.575 13T 8.600 11T 8.700 14T 8.350 15 34.225 14
2017-12-14 2017 Women's Hawaiian Pineapple Classic Oak Lawn Pirouette's Gymnastics 6A 4 Ages12+ 7.650 17T 8.450 9 8.100 12 8.000 15T 32.200 14
2017-02-02 The Big Chill Oak Lawn Pirouette's Gymnastics 5 4 11 Year Ol 8.000 13 7.800 13 7.775 13 7.800 14 31.375 14
2017-01-27 2017 UGA Invitational Oak Lawn Pirouette's Gymnastics C12 4 Senior 8.025 17 8.375 13T 8.200 9T 8.500 15 33.100 14
2016-11-11 2016 Illinois Judges Cup Oak Lawn Pirouette's Gymnastics R5 4 11 Year Ol 7.450 10 8.550 4 7.575 9 7.900 7 31.475 7
Get your scores on
a t-shirt, pin, or hoodie